sensor_id;sensor_type;location;lat;lon;timestamp;pressure;altitude;pressure_sealevel;temperature;humidity
53659;BME280;41524;35.624;139.698;2023-02-28T00:00:22;102766.00;;;11.22;32.46
53659;BME280;41524;35.624;139.698;2023-02-28T00:05:17;102761.00;;;12.70;31.25
53659;BME280;41524;35.624;139.698;2023-02-28T00:10:13;102757.00;;;11.03;34.00
53659;BME280;41524;35.624;139.698;2023-02-28T00:15:15;102757.00;;;10.68;32.36
53659;BME280;41524;35.624;139.698;2023-02-28T00:20:12;102748.00;;;12.85;30.74
53659;BME280;41524;35.624;139.698;2023-02-28T00:25:14;102743.00;;;11.22;32.50
53659;BME280;41524;35.624;139.698;2023-02-28T00:30:18;102740.00;;;12.18;30.88
53659;BME280;41524;35.624;139.698;2023-02-28T00:35:16;102734.00;;;12.14;32.52
53659;BME280;41524;35.624;139.698;2023-02-28T00:40:12;102731.00;;;12.43;31.55
53659;BME280;41524;35.624;139.698;2023-02-28T00:45:11;102725.00;;;12.65;32.36
53659;BME280;41524;35.624;139.698;2023-02-28T00:50:11;102713.00;;;11.58;31.18
53659;BME280;41524;35.624;139.698;2023-02-28T00:55:16;102698.00;;;12.50;31.54
53659;BME280;41524;35.624;139.698;2023-02-28T01:00:12;102690.00;;;13.26;30.00
53659;BME280;41524;35.624;139.698;2023-02-28T01:05:13;102682.00;;;12.42;31.41
53659;BME280;41524;35.624;139.698;2023-02-28T01:10:12;102671.00;;;12.15;31.79
53659;BME280;41524;35.624;139.698;2023-02-28T01:15:12;102658.00;;;14.56;29.75
53659;BME280;41524;35.624;139.698;2023-02-28T01:20:13;102653.00;;;13.67;30.67
53659;BME280;41524;35.624;139.698;2023-02-28T01:25:11;102647.00;;;12.61;31.65
53659;BME280;41524;35.624;139.698;2023-02-28T01:30:12;102638.00;;;13.38;30.58
53659;BME280;41524;35.624;139.698;2023-02-28T01:35:17;102620.00;;;13.30;30.94
53659;BME280;41524;35.624;139.698;2023-02-28T01:40:12;102620.00;;;14.57;30.17
53659;BME280;41524;35.624;139.698;2023-02-28T01:45:22;102606.00;;;12.37;30.58
53659;BME280;41524;35.624;139.698;2023-02-28T01:50:19;102590.00;;;13.01;30.54
53659;BME280;41524;35.624;139.698;2023-02-28T01:55:12;102574.00;;;13.51;27.58
53659;BME280;41524;35.624;139.698;2023-02-28T02:00:19;102574.00;;;12.81;28.10
53659;BME280;41524;35.624;139.698;2023-02-28T02:05:14;102565.00;;;13.70;28.39
53659;BME280;41524;35.624;139.698;2023-02-28T02:10:20;102550.00;;;14.09;28.94
53659;BME280;41524;35.624;139.698;2023-02-28T02:15:15;102539.00;;;13.57;28.17
53659;BME280;41524;35.624;139.698;2023-02-28T02:25:20;102525.00;;;13.43;29.87
53659;BME280;41524;35.624;139.698;2023-02-28T02:31:39;102505.00;;;14.49;29.00
53659;BME280;41524;35.624;139.698;2023-02-28T02:35:15;102506.00;;;14.43;29.18
53659;BME280;41524;35.624;139.698;2023-02-28T02:40:19;102483.00;;;13.81;30.54
53659;BME280;41524;35.624;139.698;2023-02-28T02:45:15;102490.00;;;13.70;30.35
53659;BME280;41524;35.624;139.698;2023-02-28T02:50:21;102477.00;;;13.20;31.32
53659;BME280;41524;35.624;139.698;2023-02-28T02:55:13;102463.00;;;13.43;30.38
53659;BME280;41524;35.624;139.698;2023-02-28T03:05:17;102440.00;;;13.57;30.92
53659;BME280;41524;35.624;139.698;2023-02-28T03:10:42;102422.00;;;14.36;30.44
53659;BME280;41524;35.624;139.698;2023-02-28T03:15:17;102409.00;;;14.08;30.37
53659;BME280;41524;35.624;139.698;2023-02-28T03:20:26;102397.00;;;14.08;29.38
53659;BME280;41524;35.624;139.698;2023-02-28T03:25:20;102378.00;;;13.96;29.25
53659;BME280;41524;35.624;139.698;2023-02-28T03:30:22;102371.00;;;14.13;29.96
53659;BME280;41524;35.624;139.698;2023-02-28T03:35:14;102360.00;;;14.77;29.26
53659;BME280;41524;35.624;139.698;2023-02-28T03:40:15;102351.00;;;14.54;29.70
53659;BME280;41524;35.624;139.698;2023-02-28T03:45:18;102340.00;;;14.77;29.50
53659;BME280;41524;35.624;139.698;2023-02-28T03:55:14;102308.00;;;14.53;29.75
53659;BME280;41524;35.624;139.698;2023-02-28T04:00:17;102297.00;;;15.09;28.76
53659;BME280;41524;35.624;139.698;2023-02-28T04:05:12;102293.00;;;15.07;28.58
53659;BME280;41524;35.624;139.698;2023-02-28T04:10:13;102279.00;;;14.80;29.16
53659;BME280;41524;35.624;139.698;2023-02-28T04:15:11;102263.00;;;14.39;29.90
53659;BME280;41524;35.624;139.698;2023-02-28T04:20:19;102244.00;;;14.82;29.31
53659;BME280;41524;35.624;139.698;2023-02-28T04:25:15;102232.00;;;15.01;29.48
53659;BME280;41524;35.624;139.698;2023-02-28T04:30:18;102211.00;;;15.21;29.49
53659;BME280;41524;35.624;139.698;2023-02-28T04:35:10;102202.00;;;15.81;28.30
53659;BME280;41524;35.624;139.698;2023-02-28T04:40:16;102198.00;;;14.85;29.65
53659;BME280;41524;35.624;139.698;2023-02-28T04:45:12;102198.00;;;15.37;29.15
53659;BME280;41524;35.624;139.698;2023-02-28T04:50:11;102199.00;;;15.29;28.87
53659;BME280;41524;35.624;139.698;2023-02-28T04:55:16;102193.00;;;15.02;29.04
53659;BME280;41524;35.624;139.698;2023-02-28T05:00:16;102184.00;;;14.91;29.56
53659;BME280;41524;35.624;139.698;2023-02-28T05:05:11;102169.00;;;14.98;28.76
53659;BME280;41524;35.624;139.698;2023-02-28T05:10:11;102164.00;;;15.17;28.32
53659;BME280;41524;35.624;139.698;2023-02-28T05:15:14;102160.00;;;15.63;27.40
53659;BME280;41524;35.624;139.698;2023-02-28T05:20:12;102161.00;;;14.75;27.89
53659;BME280;41524;35.624;139.698;2023-02-28T05:25:13;102152.00;;;16.23;26.26
53659;BME280;41524;35.624;139.698;2023-02-28T05:30:11;102150.00;;;15.62;26.72
53659;BME280;41524;35.624;139.698;2023-02-28T05:35:11;102147.00;;;15.53;27.17
53659;BME280;41524;35.624;139.698;2023-02-28T05:40:16;102144.00;;;14.99;28.41
53659;BME280;41524;35.624;139.698;2023-02-28T05:45:16;102138.00;;;16.03;27.39
53659;BME280;41524;35.624;139.698;2023-02-28T05:50:11;102132.00;;;16.04;27.45
53659;BME280;41524;35.624;139.698;2023-02-28T05:55:11;102128.00;;;15.46;28.00
53659;BME280;41524;35.624;139.698;2023-02-28T06:00:14;102123.00;;;15.39;28.42
53659;BME280;41524;35.624;139.698;2023-02-28T06:05:14;102126.00;;;15.22;28.29
53659;BME280;41524;35.624;139.698;2023-02-28T06:10:12;102120.00;;;14.78;29.14
53659;BME280;41524;35.624;139.698;2023-02-28T06:15:13;102129.00;;;14.95;28.70
53659;BME280;41524;35.624;139.698;2023-02-28T06:20:13;102122.00;;;15.62;27.71
53659;BME280;41524;35.624;139.698;2023-02-28T06:25:12;102130.00;;;16.13;26.99
53659;BME280;41524;35.624;139.698;2023-02-28T06:30:12;102129.00;;;14.81;28.21
53659;BME280;41524;35.624;139.698;2023-02-28T06:35:11;102123.00;;;14.53;28.69
53659;BME280;41524;35.624;139.698;2023-02-28T06:40:12;102120.00;;;14.81;29.14
53659;BME280;41524;35.624;139.698;2023-02-28T06:45:12;102109.00;;;15.29;28.26
53659;BME280;41524;35.624;139.698;2023-02-28T06:50:12;102104.00;;;14.86;28.69
53659;BME280;41524;35.624;139.698;2023-02-28T06:55:12;102109.00;;;15.81;27.76
53659;BME280;41524;35.624;139.698;2023-02-28T07:00:21;102111.00;;;14.91;28.00
53659;BME280;41524;35.624;139.698;2023-02-28T07:05:11;102104.00;;;15.06;28.25
53659;BME280;41524;35.624;139.698;2023-02-28T07:10:11;102094.00;;;14.72;28.18
53659;BME280;41524;35.624;139.698;2023-02-28T07:15:17;102095.00;;;14.66;28.51
53659;BME280;41524;35.624;139.698;2023-02-28T07:20:16;102094.00;;;14.43;28.54
53659;BME280;41524;35.624;139.698;2023-02-28T07:25:11;102103.00;;;14.36;28.78
53659;BME280;41524;35.624;139.698;2023-02-28T07:30:12;102093.00;;;14.46;29.11
53659;BME280;41524;35.624;139.698;2023-02-28T07:35:11;102102.00;;;13.50;29.98
53659;BME280;41524;35.624;139.698;2023-02-28T07:40:15;102101.00;;;13.46;30.48
53659;BME280;41524;35.624;139.698;2023-02-28T07:45:13;102102.00;;;13.66;30.39
53659;BME280;41524;35.624;139.698;2023-02-28T07:50:17;102107.00;;;13.34;31.20
53659;BME280;41524;35.624;139.698;2023-02-28T07:55:11;102107.00;;;13.26;31.54
53659;BME280;41524;35.624;139.698;2023-02-28T08:00:18;102100.00;;;13.19;31.46
53659;BME280;41524;35.624;139.698;2023-02-28T08:05:19;102107.00;;;13.05;31.59
53659;BME280;41524;35.624;139.698;2023-02-28T08:10:12;102112.00;;;13.14;31.39
53659;BME280;41524;35.624;139.698;2023-02-28T08:15:16;102112.00;;;13.08;31.30
53659;BME280;41524;35.624;139.698;2023-02-28T08:20:12;102110.00;;;12.84;31.84
53659;BME280;41524;35.624;139.698;2023-02-28T08:25:11;102103.00;;;12.67;31.66
53659;BME280;41524;35.624;139.698;2023-02-28T08:30:12;102100.00;;;12.49;31.65
53659;BME280;41524;35.624;139.698;2023-02-28T08:35:11;102101.00;;;12.32;31.41
53659;BME280;41524;35.624;139.698;2023-02-28T08:40:11;102093.00;;;11.99;31.34
53659;BME280;41524;35.624;139.698;2023-02-28T08:45:11;102100.00;;;12.43;30.72
53659;BME280;41524;35.624;139.698;2023-02-28T08:50:15;102095.00;;;12.18;31.63
53659;BME280;41524;35.624;139.698;2023-02-28T08:55:15;102091.00;;;11.94;31.62
53659;BME280;41524;35.624;139.698;2023-02-28T09:00:12;102091.00;;;11.90;31.49
53659;BME280;41524;35.624;139.698;2023-02-28T09:05:12;102087.00;;;11.73;31.73
53659;BME280;41524;35.624;139.698;2023-02-28T09:10:15;102090.00;;;11.75;32.07
53659;BME280;41524;35.624;139.698;2023-02-28T09:15:11;102094.00;;;12.04;31.76
53659;BME280;41524;35.624;139.698;2023-02-28T09:20:16;102093.00;;;11.83;32.43
53659;BME280;41524;35.624;139.698;2023-02-28T09:25:13;102092.00;;;11.20;33.71
53659;BME280;41524;35.624;139.698;2023-02-28T09:30:12;102099.00;;;11.47;33.79
53659;BME280;41524;35.624;139.698;2023-02-28T09:35:16;102099.00;;;11.59;33.54
53659;BME280;41524;35.624;139.698;2023-02-28T09:40:17;102098.00;;;11.55;34.10
53659;BME280;41524;35.624;139.698;2023-02-28T09:45:19;102104.00;;;11.06;34.84
53659;BME280;41524;35.624;139.698;2023-02-28T09:50:20;102093.00;;;10.81;36.15
53659;BME280;41524;35.624;139.698;2023-02-28T09:55:22;102098.00;;;11.09;36.11
53659;BME280;41524;35.624;139.698;2023-02-28T10:00:24;102090.00;;;10.82;36.89
53659;BME280;41524;35.624;139.698;2023-02-28T10:05:14;102093.00;;;11.10;36.98
53659;BME280;41524;35.624;139.698;2023-02-28T10:10:24;102090.00;;;11.34;38.52
53659;BME280;41524;35.624;139.698;2023-02-28T10:15:25;102086.00;;;11.47;38.19
53659;BME280;41524;35.624;139.698;2023-02-28T10:20:14;102093.00;;;11.33;38.67
53659;BME280;41524;35.624;139.698;2023-02-28T10:25:19;102096.00;;;11.04;38.35
53659;BME280;41524;35.624;139.698;2023-02-28T10:30:18;102095.00;;;11.28;38.18
53659;BME280;41524;35.624;139.698;2023-02-28T10:35:18;102092.00;;;11.22;37.73
53659;BME280;41524;35.624;139.698;2023-02-28T10:40:30;102094.00;;;10.81;38.59
53659;BME280;41524;35.624;139.698;2023-02-28T10:45:17;102096.00;;;11.00;38.47
53659;BME280;41524;35.624;139.698;2023-02-28T10:50:30;102095.00;;;11.18;38.73
53659;BME280;41524;35.624;139.698;2023-02-28T10:55:22;102090.00;;;10.59;39.13
53659;BME280;41524;35.624;139.698;2023-02-28T11:00:23;102093.00;;;10.46;39.63
53659;BME280;41524;35.624;139.698;2023-02-28T11:05:33;102095.00;;;10.50;39.59
53659;BME280;41524;35.624;139.698;2023-02-28T11:10:34;102088.00;;;10.62;40.08
53659;BME280;41524;35.624;139.698;2023-02-28T11:15:28;102095.00;;;10.51;41.87
53659;BME280;41524;35.624;139.698;2023-02-28T11:25:23;102107.00;;;10.56;42.97
53659;BME280;41524;35.624;139.698;2023-02-28T11:30:31;102104.00;;;10.41;43.21
53659;BME280;41524;35.624;139.698;2023-02-28T11:35:23;102104.00;;;10.31;43.70
53659;BME280;41524;35.624;139.698;2023-02-28T11:40:22;102110.00;;;10.27;43.90
53659;BME280;41524;35.624;139.698;2023-02-28T11:45:24;102110.00;;;10.03;44.38
53659;BME280;41524;35.624;139.698;2023-02-28T11:50:25;102110.00;;;10.19;44.03
53659;BME280;41524;35.624;139.698;2023-02-28T11:55:23;102118.00;;;10.03;44.70
53659;BME280;41524;35.624;139.698;2023-02-28T12:00:24;102125.00;;;10.06;44.77
53659;BME280;41524;35.624;139.698;2023-02-28T12:05:19;102129.00;;;10.08;44.97
53659;BME280;41524;35.624;139.698;2023-02-28T12:10:21;102134.00;;;9.96;45.32
53659;BME280;41524;35.624;139.698;2023-02-28T12:15:23;102129.00;;;10.40;44.63
53659;BME280;41524;35.624;139.698;2023-02-28T12:20:25;102129.00;;;10.01;45.77
53659;BME280;41524;35.624;139.698;2023-02-28T12:25:56;102125.00;;;9.97;46.41
53659;BME280;41524;35.624;139.698;2023-02-28T12:30:19;102111.00;;;10.30;46.32
53659;BME280;41524;35.624;139.698;2023-02-28T12:35:15;102105.00;;;10.05;47.64
53659;BME280;41524;35.624;139.698;2023-02-28T12:40:14;102100.00;;;10.00;48.34
53659;BME280;41524;35.624;139.698;2023-02-28T12:45:17;102094.00;;;9.96;47.82
53659;BME280;41524;35.624;139.698;2023-02-28T12:50:15;102105.00;;;9.89;48.33
53659;BME280;41524;35.624;139.698;2023-02-28T12:55:16;102102.00;;;9.82;48.12
53659;BME280;41524;35.624;139.698;2023-02-28T13:00:15;102084.00;;;10.01;47.56
53659;BME280;41524;35.624;139.698;2023-02-28T13:05:31;102077.00;;;10.20;47.52
53659;BME280;41524;35.624;139.698;2023-02-28T13:10:11;102079.00;;;9.80;47.80
53659;BME280;41524;35.624;139.698;2023-02-28T13:15:21;102071.00;;;9.99;47.30
53659;BME280;41524;35.624;139.698;2023-02-28T13:20:18;102068.00;;;9.83;48.07
53659;BME280;41524;35.624;139.698;2023-02-28T13:25:52;102068.00;;;9.82;48.79
53659;BME280;41524;35.624;139.698;2023-02-28T13:31:19;102058.00;;;9.94;48.55
53659;BME280;41524;35.624;139.698;2023-02-28T13:40:31;102052.00;;;9.77;49.06
53659;BME280;41524;35.624;139.698;2023-02-28T13:45:24;102046.00;;;9.99;48.35
53659;BME280;41524;35.624;139.698;2023-02-28T13:50:29;102046.00;;;10.02;48.27
53659;BME280;41524;35.624;139.698;2023-02-28T13:55:27;102045.00;;;9.63;49.06
53659;BME280;41524;35.624;139.698;2023-02-28T14:00:27;102040.00;;;9.30;49.09
53659;BME280;41524;35.624;139.698;2023-02-28T14:05:20;102038.00;;;9.65;48.02
53659;BME280;41524;35.624;139.698;2023-02-28T14:10:27;102044.00;;;9.46;48.27
53659;BME280;41524;35.624;139.698;2023-02-28T14:15:55;102034.00;;;9.56;47.89
53659;BME280;41524;35.624;139.698;2023-02-28T14:25:22;102026.00;;;9.41;47.39
53659;BME280;41524;35.624;139.698;2023-02-28T14:30:42;102019.00;;;9.49;47.04
53659;BME280;41524;35.624;139.698;2023-02-28T14:35:27;102020.00;;;9.54;46.90
53659;BME280;41524;35.624;139.698;2023-02-28T14:40:16;102014.00;;;9.42;46.13
53659;BME280;41524;35.624;139.698;2023-02-28T14:45:20;102003.00;;;9.95;45.41
53659;BME280;41524;35.624;139.698;2023-02-28T14:50:21;102000.00;;;9.64;45.67
53659;BME280;41524;35.624;139.698;2023-02-28T14:55:26;101990.00;;;9.53;46.10
53659;BME280;41524;35.624;139.698;2023-02-28T15:00:25;101984.00;;;9.51;46.68
53659;BME280;41524;35.624;139.698;2023-02-28T15:05:27;101992.00;;;9.60;46.20
53659;BME280;41524;35.624;139.698;2023-02-28T15:10:17;101998.00;;;9.36;47.00
53659;BME280;41524;35.624;139.698;2023-02-28T15:15:22;102002.00;;;10.29;45.82
53659;BME280;41524;35.624;139.698;2023-02-28T15:20:13;102004.00;;;10.15;45.87
53659;BME280;41524;35.624;139.698;2023-02-28T15:25:20;102004.00;;;9.57;46.42
53659;BME280;41524;35.624;139.698;2023-02-28T15:30:17;101996.00;;;9.87;45.94
53659;BME280;41524;35.624;139.698;2023-02-28T15:35:30;101988.00;;;10.28;44.93
53659;BME280;41524;35.624;139.698;2023-02-28T15:40:21;101991.00;;;9.28;46.17
53659;BME280;41524;35.624;139.698;2023-02-28T15:45:37;101985.00;;;9.29;46.64
53659;BME280;41524;35.624;139.698;2023-02-28T15:50:16;101983.00;;;10.00;45.31
53659;BME280;41524;35.624;139.698;2023-02-28T15:55:16;101981.00;;;9.15;46.48
53659;BME280;41524;35.624;139.698;2023-02-28T16:00:14;101977.00;;;9.49;46.32
53659;BME280;41524;35.624;139.698;2023-02-28T16:05:26;101973.00;;;9.41;46.18
53659;BME280;41524;35.624;139.698;2023-02-28T16:10:13;101971.00;;;9.32;46.20
53659;BME280;41524;35.624;139.698;2023-02-28T16:15:20;101958.00;;;9.76;45.17
53659;BME280;41524;35.624;139.698;2023-02-28T16:20:15;101954.00;;;9.27;45.73
53659;BME280;41524;35.624;139.698;2023-02-28T16:25:13;101947.00;;;9.65;44.76
53659;BME280;41524;35.624;139.698;2023-02-28T16:30:28;101949.00;;;9.43;45.25
53659;BME280;41524;35.624;139.698;2023-02-28T16:35:12;101944.00;;;9.02;45.81
53659;BME280;41524;35.624;139.698;2023-02-28T16:40:16;101932.00;;;8.99;45.47
53659;BME280;41524;35.624;139.698;2023-02-28T16:45:22;101936.00;;;10.02;43.57
53659;BME280;41524;35.624;139.698;2023-02-28T16:50:15;101930.00;;;9.31;44.64
53659;BME280;41524;35.624;139.698;2023-02-28T16:55:15;101926.00;;;9.12;44.70
53659;BME280;41524;35.624;139.698;2023-02-28T17:00:14;101918.00;;;9.26;44.47
53659;BME280;41524;35.624;139.698;2023-02-28T17:05:13;101929.00;;;9.41;44.00
53659;BME280;41524;35.624;139.698;2023-02-28T17:10:15;101928.00;;;9.54;43.63
53659;BME280;41524;35.624;139.698;2023-02-28T17:15:12;101924.00;;;9.21;44.33
53659;BME280;41524;35.624;139.698;2023-02-28T17:20:14;101921.00;;;9.10;44.38
53659;BME280;41524;35.624;139.698;2023-02-28T17:25:15;101918.00;;;9.78;43.43
53659;BME280;41524;35.624;139.698;2023-02-28T17:30:19;101920.00;;;10.87;41.34
53659;BME280;41524;35.624;139.698;2023-02-28T17:35:12;101919.00;;;10.48;41.95
53659;BME280;41524;35.624;139.698;2023-02-28T17:40:15;101914.00;;;10.87;41.01
53659;BME280;41524;35.624;139.698;2023-02-28T17:45:16;101910.00;;;11.08;40.56
53659;BME280;41524;35.624;139.698;2023-02-28T17:50:17;101911.00;;;10.84;40.83
53659;BME280;41524;35.624;139.698;2023-02-28T17:55:12;101919.00;;;10.16;41.10
53659;BME280;41524;35.624;139.698;2023-02-28T18:00:13;101916.00;;;9.96;42.08
53659;BME280;41524;35.624;139.698;2023-02-28T18:05:11;101918.00;;;9.71;41.98
53659;BME280;41524;35.624;139.698;2023-02-28T18:10:15;101915.00;;;11.18;38.38
53659;BME280;41524;35.624;139.698;2023-02-28T18:15:16;101916.00;;;10.52;37.85
53659;BME280;41524;35.624;139.698;2023-02-28T18:20:16;101914.00;;;10.14;36.76
53659;BME280;41524;35.624;139.698;2023-02-28T18:25:11;101910.00;;;9.97;36.05
53659;BME280;41524;35.624;139.698;2023-02-28T18:30:13;101907.00;;;9.50;35.81
53659;BME280;41524;35.624;139.698;2023-02-28T18:35:13;101909.00;;;10.45;34.22
53659;BME280;41524;35.624;139.698;2023-02-28T18:40:19;101912.00;;;9.98;34.71
53659;BME280;41524;35.624;139.698;2023-02-28T18:45:11;101913.00;;;9.69;34.58
53659;BME280;41524;35.624;139.698;2023-02-28T18:50:12;101903.00;;;9.27;35.02
53659;BME280;41524;35.624;139.698;2023-02-28T18:55:20;101898.00;;;8.65;37.05
53659;BME280;41524;35.624;139.698;2023-02-28T19:00:17;101904.00;;;8.69;36.77
53659;BME280;41524;35.624;139.698;2023-02-28T19:05:10;101916.00;;;8.75;36.50
53659;BME280;41524;35.624;139.698;2023-02-28T19:10:21;101916.00;;;9.09;36.07
53659;BME280;41524;35.624;139.698;2023-02-28T19:15:11;101911.00;;;10.01;33.48
53659;BME280;41524;35.624;139.698;2023-02-28T19:20:11;101906.00;;;11.70;31.01
53659;BME280;41524;35.624;139.698;2023-02-28T19:25:12;101911.00;;;9.18;36.13
53659;BME280;41524;35.624;139.698;2023-02-28T19:30:16;101911.00;;;9.30;34.36
53659;BME280;41524;35.624;139.698;2023-02-28T19:35:10;101919.00;;;8.88;35.96
53659;BME280;41524;35.624;139.698;2023-02-28T19:40:14;101925.00;;;8.41;37.85
53659;BME280;41524;35.624;139.698;2023-02-28T19:45:11;101931.00;;;8.30;38.44
53659;BME280;41524;35.624;139.698;2023-02-28T19:50:11;101923.00;;;8.78;37.57
53659;BME280;41524;35.624;139.698;2023-02-28T19:55:11;101923.00;;;7.92;38.37
53659;BME280;41524;35.624;139.698;2023-02-28T20:00:16;101926.00;;;8.44;37.79
53659;BME280;41524;35.624;139.698;2023-02-28T20:05:11;101930.00;;;8.57;37.66
53659;BME280;41524;35.624;139.698;2023-02-28T20:10:11;101932.00;;;8.60;37.75
53659;BME280;41524;35.624;139.698;2023-02-28T20:15:11;101934.00;;;8.45;38.06
53659;BME280;41524;35.624;139.698;2023-02-28T20:20:15;101934.00;;;9.33;36.48
53659;BME280;41524;35.624;139.698;2023-02-28T20:25:11;101926.00;;;9.35;36.27
53659;BME280;41524;35.624;139.698;2023-02-28T20:30:21;101939.00;;;8.39;38.18
53659;BME280;41524;35.624;139.698;2023-02-28T20:35:11;101939.00;;;8.45;37.70
53659;BME280;41524;35.624;139.698;2023-02-28T20:40:12;101942.00;;;8.60;36.96
53659;BME280;41524;35.624;139.698;2023-02-28T20:45:18;101943.00;;;7.92;38.47
53659;BME280;41524;35.624;139.698;2023-02-28T20:50:11;101938.00;;;8.39;35.95
53659;BME280;41524;35.624;139.698;2023-02-28T20:55:11;101932.00;;;10.36;33.62
53659;BME280;41524;35.624;139.698;2023-02-28T21:00:12;101935.00;;;9.22;35.18
53659;BME280;41524;35.624;139.698;2023-02-28T21:05:11;101924.00;;;9.18;34.66
53659;BME280;41524;35.624;139.698;2023-02-28T21:10:20;101913.00;;;9.05;34.68
53659;BME280;41524;35.624;139.698;2023-02-28T21:15:11;101911.00;;;8.70;36.33
53659;BME280;41524;35.624;139.698;2023-02-28T21:20:14;101923.00;;;8.42;37.05
53659;BME280;41524;35.624;139.698;2023-02-28T21:25:11;101929.00;;;7.90;38.54
53659;BME280;41524;35.624;139.698;2023-02-28T21:30:18;101938.00;;;8.29;38.75
53659;BME280;41524;35.624;139.698;2023-02-28T21:35:11;101937.00;;;8.31;37.10
53659;BME280;41524;35.624;139.698;2023-02-28T21:40:12;101938.00;;;8.04;37.23
53659;BME280;41524;35.624;139.698;2023-02-28T21:45:16;101944.00;;;8.72;35.52
53659;BME280;41524;35.624;139.698;2023-02-28T21:50:12;101949.00;;;8.74;36.82
53659;BME280;41524;35.624;139.698;2023-02-28T21:55:13;101944.00;;;8.69;37.30
53659;BME280;41524;35.624;139.698;2023-02-28T22:00:16;101944.00;;;8.40;37.22
53659;BME280;41524;35.624;139.698;2023-02-28T22:05:12;101944.00;;;8.50;36.77
53659;BME280;41524;35.624;139.698;2023-02-28T22:10:16;101945.00;;;8.55;37.48
53659;BME280;41524;35.624;139.698;2023-02-28T22:15:11;101950.00;;;8.37;39.07
53659;BME280;41524;35.624;139.698;2023-02-28T22:20:13;101950.00;;;8.71;39.14
53659;BME280;41524;35.624;139.698;2023-02-28T22:25:16;101940.00;;;9.16;38.81
53659;BME280;41524;35.624;139.698;2023-02-28T22:30:12;101941.00;;;8.42;39.43
53659;BME280;41524;35.624;139.698;2023-02-28T22:35:11;101951.00;;;9.12;46.57
53659;BME280;41524;35.624;139.698;2023-02-28T22:40:15;101969.00;;;8.72;40.08
53659;BME280;41524;35.624;139.698;2023-02-28T22:45:16;101976.00;;;9.35;40.37
53659;BME280;41524;35.624;139.698;2023-02-28T22:50:12;101983.00;;;9.47;44.15
53659;BME280;41524;35.624;139.698;2023-02-28T22:55:13;101998.00;;;8.78;45.74
53659;BME280;41524;35.624;139.698;2023-02-28T23:00:12;101999.00;;;8.79;44.29
53659;BME280;41524;35.624;139.698;2023-02-28T23:05:11;102010.00;;;10.25;44.19
53659;BME280;41524;35.624;139.698;2023-02-28T23:10:17;102009.00;;;10.29;44.31
53659;BME280;41524;35.624;139.698;2023-02-28T23:15:12;101990.00;;;11.73;38.83
53659;BME280;41524;35.624;139.698;2023-02-28T23:20:13;101984.00;;;12.26;31.63
53659;BME280;41524;35.624;139.698;2023-02-28T23:25:16;101983.00;;;12.50;37.64
53659;BME280;41524;35.624;139.698;2023-02-28T23:30:12;101971.00;;;11.54;35.20
53659;BME280;41524;35.624;139.698;2023-02-28T23:35:15;101972.00;;;13.49;31.74
53659;BME280;41524;35.624;139.698;2023-02-28T23:40:12;101969.00;;;11.09;35.76
53659;BME280;41524;35.624;139.698;2023-02-28T23:45:11;101965.00;;;10.69;35.00
53659;BME280;41524;35.624;139.698;2023-02-28T23:50:16;101957.00;;;12.85;32.77
53659;BME280;41524;35.624;139.698;2023-02-28T23:55:16;101950.00;;;11.77;35.48
